ニアメ の空港の天気 - METARとTAF

ニアメ/ディオリ・アマニ国際空港 ( DRRN / NIM ) - ニジェール ニアメ
飛行場実況気象(Metar)
観測時間07/18 14:00 WAT (07/18 13:00 UTC)
風向・風速不定 1m/s
視程10km以上
天気現象
少しの雲 雲底高度 490m
少しの雲 雲底高度 910m
気温29℃
湿度66%
気圧1012hPa
METARDRRN 181300Z VRB02KT 9999 TS FEW016 FEW030CB 29/22 Q1012 NOSIG
過去の天気等 Google飛行場航空写真 Wunderground天気予報

過去48時間のMETAR

飛行場予報(TAF)
発表時間: 7/18 12:00 WAT (7/18 11:00 UTC)
予報対象時間: 18日13時 WAT ~ 19日19時 WAT
風向・風速南西 4m/s
視程8000m
天気現象
全天の4割程度の雲 雲底高度 610m
少しの積乱雲 雲底高度 910m
18日13時 WAT ~ 18日15時 WAT に一時的に
風向・風速東南東 18m/s
視程1200m
天気現象高い風塵 雨
18日16時 WAT ~ 18日18時 WAT に徐々に
天気現象運行に影響にある天気現象が終了
TAF DRRN 181100Z 1812/1918 22008KT 8000 TS SCT020 FEW030CB
TEMPO 1812/1814 12035KT 1200 BLDU RA
BECMG 1815/1817 NSW 9999 FEW026